createdAt,value
2023-06-15T00:00:18.500Z,20.50
2023-06-15T00:02:47.488Z,20.40
2023-06-15T00:05:15.890Z,20.40
2023-06-15T00:07:45.978Z,20.30
2023-06-15T00:10:14.006Z,20.30
2023-06-15T00:12:42.332Z,20.30
2023-06-15T00:15:11.512Z,20.20
2023-06-15T00:17:43.481Z,20.10
2023-06-15T00:20:13.631Z,20.10
2023-06-15T00:22:42.985Z,20.00
2023-06-15T00:25:11.375Z,19.90
2023-06-15T00:27:39.821Z,19.90
2023-06-15T00:30:10.404Z,19.90
2023-06-15T00:32:40.472Z,19.90
2023-06-15T00:35:09.714Z,19.80
2023-06-15T00:37:38.125Z,19.90
2023-06-15T00:40:08.809Z,19.80
2023-06-15T00:42:37.101Z,19.70
2023-06-15T00:45:05.675Z,19.70
2023-06-15T00:47:40.684Z,19.70
2023-06-15T00:50:15.932Z,19.60
2023-06-15T00:52:47.626Z,19.70
2023-06-15T00:55:16.814Z,19.60
2023-06-15T00:57:50.998Z,19.50
2023-06-15T01:00:20.140Z,19.60
2023-06-15T01:02:50.862Z,19.60
2023-06-15T01:05:24.254Z,19.70
2023-06-15T01:07:54.517Z,19.50
2023-06-15T01:10:25.648Z,19.50
2023-06-15T01:12:56.084Z,19.40
2023-06-15T01:15:25.132Z,19.40
2023-06-15T01:17:57.375Z,19.30
2023-06-15T01:20:40.249Z,19.40
2023-06-15T01:23:23.997Z,19.20
2023-06-15T01:26:01.717Z,19.30
2023-06-15T01:28:32.177Z,19.40
2023-06-15T01:31:01.715Z,19.20
2023-06-15T01:33:30.039Z,19.20
2023-06-15T01:35:58.553Z,19.10
2023-06-15T01:38:29.518Z,19.10
2023-06-15T01:41:01.737Z,19.10
2023-06-15T01:43:34.962Z,19.10
2023-06-15T01:46:07.599Z,19.10
2023-06-15T01:48:36.184Z,19.00
2023-06-15T01:51:05.125Z,19.00
2023-06-15T01:53:33.592Z,18.90
2023-06-15T01:56:06.048Z,19.00
2023-06-15T01:58:34.440Z,19.00
2023-06-15T02:01:03.325Z,18.90
2023-06-15T02:03:32.609Z,18.80
2023-06-15T02:06:00.947Z,18.90
2023-06-15T02:08:29.328Z,18.90
2023-06-15T02:10:57.985Z,18.90
2023-06-15T02:13:27.606Z,18.90
2023-06-15T02:15:55.699Z,18.90
2023-06-15T02:18:23.880Z,18.90
2023-06-15T02:20:52.646Z,18.80
2023-06-15T02:23:21.222Z,18.80
2023-06-15T02:25:49.408Z,18.80
2023-06-15T02:28:17.735Z,18.70
2023-06-15T02:30:47.258Z,18.80
2023-06-15T02:33:16.938Z,18.70
2023-06-15T02:35:47.234Z,18.70
2023-06-15T02:38:15.740Z,18.50
2023-06-15T02:40:43.801Z,18.70
2023-06-15T02:43:12.051Z,18.60
2023-06-15T02:45:40.404Z,18.60
2023-06-15T02:48:11.059Z,18.60
2023-06-15T02:50:39.372Z,18.60
2023-06-15T02:53:07.841Z,18.60
2023-06-15T02:55:38.538Z,18.50
2023-06-15T02:58:08.269Z,18.60
2023-06-15T03:00:38.016Z,18.50
2023-06-15T03:03:06.158Z,18.50
2023-06-15T03:05:36.218Z,18.40
2023-06-15T03:08:04.863Z,18.40
2023-06-15T03:10:32.990Z,18.30
2023-06-15T03:13:01.612Z,18.30
2023-06-15T03:15:29.978Z,18.40
2023-06-15T03:17:58.400Z,18.20
2023-06-15T03:20:34.067Z,18.20
2023-06-15T03:23:03.864Z,18.00
2023-06-15T03:25:32.135Z,18.00
2023-06-15T03:28:01.014Z,18.20
2023-06-15T03:30:31.582Z,18.20
2023-06-15T03:33:01.273Z,18.20
2023-06-15T03:35:29.604Z,18.20
2023-06-15T03:37:57.995Z,18.10
2023-06-15T03:40:27.729Z,18.10
2023-06-15T03:42:56.205Z,18.10
2023-06-15T03:45:24.698Z,18.10
2023-06-15T03:47:53.020Z,18.10
2023-06-15T03:50:23.478Z,18.20
2023-06-15T03:52:51.487Z,18.20
2023-06-15T03:55:19.873Z,18.30
2023-06-15T03:57:50.076Z,18.20
2023-06-15T04:00:19.497Z,18.20
2023-06-15T04:02:47.697Z,18.20
2023-06-15T04:05:16.409Z,18.20
2023-06-15T04:07:44.777Z,18.20
2023-06-15T04:10:13.682Z,18.10
2023-06-15T04:12:41.914Z,18.10
2023-06-15T04:15:12.602Z,18.10
2023-06-15T04:17:40.781Z,17.90
2023-06-15T04:20:11.517Z,18.10
2023-06-15T04:22:39.636Z,18.10
2023-06-15T04:25:09.310Z,18.10
2023-06-15T04:27:38.207Z,18.20
2023-06-15T04:30:07.521Z,18.20
2023-06-15T04:32:37.515Z,18.20
2023-06-15T04:35:07.473Z,18.30
2023-06-15T04:37:38.951Z,18.30
2023-06-15T04:40:10.940Z,18.40
2023-06-15T04:42:41.918Z,18.50
2023-06-15T04:45:11.186Z,18.60
2023-06-15T04:47:43.307Z,18.70
2023-06-15T04:50:14.501Z,18.80
2023-06-15T04:52:45.916Z,18.90
2023-06-15T04:55:14.018Z,19.00
2023-06-15T04:57:42.046Z,19.10
2023-06-15T05:00:11.254Z,19.20
2023-06-15T05:02:41.398Z,19.30
2023-06-15T05:05:10.148Z,19.40
2023-06-15T05:07:38.172Z,19.40
2023-06-15T05:10:08.577Z,19.50
2023-06-15T05:12:36.707Z,19.60
2023-06-15T05:15:07.295Z,19.60
2023-06-15T05:17:35.522Z,19.70
2023-06-15T05:20:07.008Z,19.90
2023-06-15T05:22:35.169Z,19.90
2023-06-15T05:25:04.680Z,20.00
2023-06-15T05:27:36.440Z,20.10
2023-06-15T05:30:05.585Z,20.10
2023-06-15T05:32:38.616Z,20.20
2023-06-15T05:35:09.985Z,20.30
2023-06-15T05:37:38.450Z,20.30
2023-06-15T05:40:07.891Z,20.40
2023-06-15T05:42:36.089Z,20.50
2023-06-15T05:45:04.567Z,20.60
2023-06-15T05:47:33.643Z,20.60
2023-06-15T05:50:01.732Z,20.70
2023-06-15T05:52:31.413Z,20.90
2023-06-15T05:55:00.458Z,21.00
2023-06-15T05:57:28.592Z,21.00
2023-06-15T05:59:56.780Z,21.10
2023-06-15T06:02:25.739Z,21.10
2023-06-15T06:04:53.944Z,21.10
2023-06-15T06:07:22.063Z,21.10
2023-06-15T06:09:51.905Z,20.90
2023-06-15T06:12:19.965Z,21.10
2023-06-15T06:14:48.187Z,21.30
2023-06-15T06:17:33.424Z,21.30
2023-06-15T06:20:04.402Z,21.40
2023-06-15T06:22:33.337Z,21.50
2023-06-15T06:25:03.047Z,21.60
2023-06-15T06:27:31.333Z,21.70
2023-06-15T06:30:00.763Z,21.70
2023-06-15T06:32:29.000Z,21.90
2023-06-15T06:34:57.570Z,22.00
2023-06-15T06:37:27.165Z,22.10
2023-06-15T06:40:01.268Z,22.10
2023-06-15T06:42:31.219Z,22.10
2023-06-15T06:44:59.437Z,22.30
2023-06-15T06:47:27.788Z,22.20
2023-06-15T06:49:56.766Z,22.40
2023-06-15T06:52:25.020Z,22.50
2023-06-15T06:54:53.262Z,22.70
2023-06-15T06:57:21.996Z,22.80
2023-06-15T06:59:51.797Z,22.90
2023-06-15T07:02:21.319Z,23.00
2023-06-15T07:04:49.541Z,23.10
2023-06-15T07:07:19.713Z,23.10
2023-06-15T07:09:47.944Z,23.30
2023-06-15T07:12:16.623Z,23.30
2023-06-15T07:14:45.169Z,23.50
2023-06-15T07:17:15.652Z,23.70
2023-06-15T07:19:43.763Z,23.70
2023-06-15T07:22:11.960Z,23.80
2023-06-15T07:24:40.551Z,23.90
2023-06-15T07:27:09.061Z,24.10
2023-06-15T07:29:37.374Z,24.10
2023-06-15T07:32:06.021Z,24.30
2023-06-15T07:34:35.701Z,24.30
2023-06-15T07:37:03.949Z,24.40
2023-06-15T07:39:32.533Z,24.40
2023-06-15T07:42:01.843Z,24.60
2023-06-15T07:44:29.847Z,24.60
2023-06-15T07:46:58.168Z,24.70
2023-06-15T07:49:40.503Z,24.90
2023-06-15T07:52:14.205Z,24.90
2023-06-15T07:54:43.422Z,24.90
2023-06-15T07:57:11.871Z,25.10
2023-06-15T07:59:40.509Z,25.20
2023-06-15T08:02:09.650Z,25.50
2023-06-15T08:04:38.720Z,25.40
2023-06-15T08:07:08.140Z,25.60
2023-06-15T08:09:38.050Z,25.70
2023-06-15T08:12:07.268Z,25.80
2023-06-15T08:14:37.295Z,25.80
2023-06-15T08:17:05.961Z,25.70
2023-06-15T08:19:34.467Z,25.80
2023-06-15T08:22:02.865Z,25.80
2023-06-15T08:24:31.286Z,25.90
2023-06-15T08:27:01.703Z,25.90
2023-06-15T08:29:29.774Z,25.90
2023-06-15T08:31:57.885Z,26.10
2023-06-15T08:34:25.897Z,26.30
2023-06-15T08:36:54.959Z,26.40
2023-06-15T08:39:23.279Z,26.50
2023-06-15T08:41:51.950Z,26.70
2023-06-15T08:44:22.976Z,26.70
2023-06-15T08:46:52.366Z,26.70
2023-06-15T08:49:20.761Z,26.80
2023-06-15T08:51:51.786Z,26.90
2023-06-15T08:54:21.378Z,26.90
2023-06-15T08:56:49.822Z,27.00
2023-06-15T08:59:18.591Z,27.10
2023-06-15T09:01:48.386Z,27.00
2023-06-15T09:04:19.759Z,27.10
2023-06-15T09:06:48.308Z,27.20
2023-06-15T09:09:16.853Z,27.40
2023-06-15T09:11:48.578Z,27.50
2023-06-15T09:14:16.667Z,27.60
2023-06-15T09:16:45.598Z,27.70
2023-06-15T09:19:26.902Z,27.90
2023-06-15T09:21:57.241Z,28.00
2023-06-15T09:24:25.820Z,28.20
2023-06-15T09:26:53.981Z,28.40
2023-06-15T09:29:22.092Z,28.60
2023-06-15T09:31:50.287Z,28.70
2023-06-15T09:34:19.896Z,28.90
2023-06-15T09:36:50.085Z,29.00
2023-06-15T09:39:24.711Z,29.10
2023-06-15T09:41:54.610Z,29.20
2023-06-15T09:44:23.865Z,29.50
2023-06-15T09:46:53.316Z,29.60
2023-06-15T09:49:27.462Z,29.70
2023-06-15T09:51:57.045Z,29.40
2023-06-15T09:54:27.338Z,29.50
2023-06-15T09:56:55.654Z,29.20
2023-06-15T09:59:24.600Z,28.90
2023-06-15T10:01:57.076Z,28.60
2023-06-15T10:04:29.508Z,28.50
2023-06-15T10:07:01.722Z,28.40
2023-06-15T10:09:37.620Z,28.30
2023-06-15T10:12:10.759Z,28.30
2023-06-15T10:14:46.770Z,28.60
2023-06-15T10:17:17.443Z,28.80
2023-06-15T10:19:53.895Z,29.10
2023-06-15T10:22:35.589Z,29.10
2023-06-15T10:25:04.736Z,29.50
2023-06-15T10:27:33.090Z,29.90
2023-06-15T10:30:09.615Z,30.00
2023-06-15T10:32:45.299Z,30.10
2023-06-15T10:35:23.417Z,30.20
2023-06-15T10:37:58.956Z,30.50
2023-06-15T10:40:30.848Z,30.60
2023-06-15T10:43:04.067Z,30.90
2023-06-15T10:45:33.550Z,30.70
2023-06-15T10:48:05.231Z,30.40
2023-06-15T10:50:49.923Z,29.90
2023-06-15T10:53:26.362Z,29.80
2023-06-15T10:55:56.472Z,29.70
2023-06-15T10:58:25.826Z,29.70
2023-06-15T11:01:08.767Z,29.50
2023-06-15T11:03:37.518Z,29.30
2023-06-15T11:06:11.038Z,29.60
2023-06-15T11:08:51.507Z,29.50
2023-06-15T11:11:32.765Z,29.60
2023-06-15T11:14:04.271Z,29.40
2023-06-15T11:16:34.465Z,29.30
2023-06-15T11:19:26.195Z,29.30
2023-06-15T11:22:09.904Z,29.50
2023-06-15T11:24:47.643Z,29.40
2023-06-15T11:27:20.188Z,29.10
2023-06-15T11:29:48.786Z,29.00
2023-06-15T11:32:16.895Z,28.70
2023-06-15T11:34:45.132Z,28.90
2023-06-15T11:37:17.463Z,29.00
2023-06-15T11:39:47.901Z,29.20
2023-06-15T11:42:16.745Z,29.10
2023-06-15T11:44:50.575Z,28.70
2023-06-15T11:47:19.485Z,28.70
2023-06-15T11:49:48.050Z,28.80
2023-06-15T11:52:18.375Z,28.70
2023-06-15T11:54:53.253Z,28.90
2023-06-15T11:57:23.340Z,29.00
2023-06-15T11:59:52.376Z,29.20
2023-06-15T12:02:20.758Z,29.50
2023-06-15T12:04:49.598Z,29.40
2023-06-15T12:07:36.355Z,28.90
2023-06-15T12:10:08.310Z,28.60
2023-06-15T12:12:38.346Z,28.50
2023-06-15T12:15:08.567Z,28.40
2023-06-15T12:17:38.677Z,28.50
2023-06-15T12:20:13.982Z,28.70
2023-06-15T12:23:06.578Z,28.60
2023-06-15T12:28:19.431Z,28.80
2023-06-15T12:30:48.737Z,28.80
2023-06-15T12:33:30.133Z,28.80
2023-06-15T12:36:03.000Z,28.90
2023-06-15T12:38:32.689Z,29.00
2023-06-15T12:41:06.897Z,28.90
2023-06-15T12:43:38.111Z,28.90
2023-06-15T12:46:06.294Z,28.70
2023-06-15T12:48:34.561Z,28.20
2023-06-15T12:51:06.121Z,28.00
2023-06-15T12:53:35.554Z,28.10
2023-06-15T12:56:03.969Z,28.10
2023-06-15T12:58:32.636Z,28.30
2023-06-15T13:01:00.825Z,28.40
2023-06-15T13:03:32.382Z,28.50
2023-06-15T13:06:01.701Z,28.60
2023-06-15T13:08:29.961Z,28.60
2023-06-15T13:10:59.593Z,28.80
2023-06-15T13:13:28.163Z,28.80
2023-06-15T13:15:56.733Z,29.00
2023-06-15T13:18:25.112Z,29.10
2023-06-15T13:20:54.525Z,28.90
2023-06-15T13:23:22.693Z,28.80
2023-06-15T13:25:53.422Z,28.80
2023-06-15T13:28:23.010Z,28.90
2023-06-15T13:30:52.103Z,28.90
2023-06-15T13:33:22.094Z,28.80
2023-06-15T13:35:50.175Z,28.60
2023-06-15T13:38:18.456Z,28.40
2023-06-15T13:40:46.627Z,28.40
2023-06-15T13:43:14.887Z,28.50
2023-06-15T13:45:44.513Z,28.40
2023-06-15T13:48:12.743Z,28.40
2023-06-15T13:50:40.925Z,28.30
2023-06-15T13:53:09.115Z,28.30
2023-06-15T13:55:37.603Z,28.10
2023-06-15T13:58:05.811Z,28.00
2023-06-15T14:00:38.008Z,28.00
2023-06-15T14:03:08.800Z,28.00
2023-06-15T14:05:37.147Z,28.00
2023-06-15T14:08:05.812Z,28.10
2023-06-15T14:10:38.456Z,28.10
2023-06-15T14:13:07.110Z,28.00
2023-06-15T14:15:35.566Z,28.00
2023-06-15T14:18:03.824Z,27.80
2023-06-15T14:20:34.203Z,27.60
2023-06-15T14:23:05.434Z,27.70
2023-06-15T14:25:33.542Z,27.60
2023-06-15T14:28:17.293Z,27.60
2023-06-15T14:30:45.627Z,27.50
2023-06-15T14:33:13.942Z,27.60
2023-06-15T14:35:43.768Z,27.70
2023-06-15T14:38:11.939Z,27.70
2023-06-15T14:40:40.332Z,27.80
2023-06-15T14:43:08.549Z,27.80
2023-06-15T14:45:37.016Z,27.70
2023-06-15T14:48:05.842Z,27.80
2023-06-15T14:50:34.261Z,27.70
2023-06-15T14:53:03.872Z,27.90
2023-06-15T14:55:31.978Z,27.70
2023-06-15T14:57:59.917Z,27.60
2023-06-15T15:00:28.028Z,27.50
2023-06-15T15:02:56.284Z,27.40
2023-06-15T15:05:24.795Z,27.50
2023-06-15T15:07:53.017Z,27.50
2023-06-15T15:10:23.066Z,27.40
2023-06-15T15:12:51.448Z,27.60
2023-06-15T15:15:19.605Z,27.40
2023-06-15T15:17:48.097Z,27.30
2023-06-15T15:20:16.686Z,27.30
2023-06-15T15:22:45.261Z,27.20
2023-06-15T15:25:16.180Z,27.20
2023-06-15T15:27:46.245Z,27.10
2023-06-15T15:30:15.147Z,27.20
2023-06-15T15:32:46.926Z,27.20
2023-06-15T15:35:21.125Z,27.00
2023-06-15T15:38:27.378Z,27.10
2023-06-15T15:41:12.660Z,27.40
2023-06-15T15:44:11.011Z,27.20
2023-06-15T15:50:34.661Z,27.00
2023-06-15T15:53:05.027Z,26.90
2023-06-15T15:55:44.328Z,27.00
2023-06-15T15:58:42.123Z,27.00
2023-06-15T15:59:04.156Z,27.00
2023-06-15T16:01:53.731Z,27.00
2023-06-15T16:04:24.226Z,26.90
2023-06-15T16:07:06.763Z,26.80
2023-06-15T16:09:43.758Z,27.00
2023-06-15T16:12:20.293Z,27.10
2023-06-15T16:15:00.666Z,27.10
2023-06-15T16:20:31.178Z,27.00
2023-06-15T16:22:59.679Z,27.00
2023-06-15T16:25:28.054Z,26.80
2023-06-15T16:27:59.257Z,26.80
2023-06-15T16:30:27.679Z,26.70
2023-06-15T16:33:00.784Z,26.70
2023-06-15T16:35:29.204Z,26.60
2023-06-15T16:37:57.429Z,26.80
2023-06-15T16:40:25.922Z,26.90
2023-06-15T16:43:05.763Z,27.00
2023-06-15T16:45:36.399Z,26.70
2023-06-15T16:48:06.519Z,26.80
2023-06-15T16:50:37.036Z,26.70
2023-06-15T16:53:06.098Z,26.60
2023-06-15T16:55:34.579Z,26.70
2023-06-15T16:58:06.316Z,26.70
2023-06-15T17:00:35.624Z,26.90
2023-06-15T17:03:07.024Z,26.90
2023-06-15T17:05:39.277Z,26.70
2023-06-15T17:08:10.211Z,26.70
2023-06-15T17:10:38.610Z,26.50
2023-06-15T17:13:07.461Z,26.50
2023-06-15T17:15:38.402Z,26.50
2023-06-15T17:18:09.724Z,26.70
2023-06-15T17:20:38.469Z,26.60
2023-06-15T17:23:17.888Z,26.60
2023-06-15T17:25:46.681Z,26.60
2023-06-15T17:28:15.367Z,26.50
2023-06-15T17:30:43.637Z,26.50
2023-06-15T17:33:21.368Z,26.50
2023-06-15T17:35:49.446Z,26.50
2023-06-15T17:38:26.795Z,26.60
2023-06-15T17:40:54.852Z,26.40
2023-06-15T17:43:23.706Z,26.40
2023-06-15T17:45:53.217Z,26.40
2023-06-15T17:48:23.865Z,26.40
2023-06-15T17:50:52.004Z,26.20
2023-06-15T17:53:20.411Z,26.10
2023-06-15T17:55:49.166Z,26.10
2023-06-15T17:58:19.850Z,26.30
2023-06-15T18:00:48.017Z,26.30
2023-06-15T18:03:16.307Z,26.30
2023-06-15T18:05:45.845Z,26.20
2023-06-15T18:08:14.067Z,26.20
2023-06-15T18:10:45.182Z,26.10
2023-06-15T18:13:30.871Z,26.10
2023-06-15T18:16:02.065Z,26.00
2023-06-15T18:18:36.153Z,26.00
2023-06-15T18:21:06.129Z,25.80
2023-06-15T18:23:34.305Z,25.60
2023-06-15T18:26:06.711Z,25.60
2023-06-15T18:28:37.144Z,25.60
2023-06-15T18:31:05.554Z,25.50
2023-06-15T18:33:46.117Z,25.40
2023-06-15T18:36:16.546Z,25.40
2023-06-15T18:38:45.019Z,25.40
2023-06-15T18:41:13.906Z,25.20
2023-06-15T18:43:42.545Z,25.00
2023-06-15T18:46:10.811Z,24.90
2023-06-15T18:48:40.898Z,25.10
2023-06-15T18:51:11.322Z,25.00
2023-06-15T18:53:41.410Z,25.00
2023-06-15T18:56:09.930Z,24.90
2023-06-15T18:58:38.767Z,24.90
2023-06-15T19:01:07.245Z,24.70
2023-06-15T19:03:36.122Z,24.70
2023-06-15T19:06:05.090Z,24.70
2023-06-15T19:08:35.504Z,24.60
2023-06-15T19:11:08.612Z,24.50
2023-06-15T19:13:38.159Z,24.50
2023-06-15T19:16:11.976Z,24.30
2023-06-15T19:18:40.762Z,24.40
2023-06-15T19:21:13.434Z,24.10
2023-06-15T19:23:46.930Z,24.00
2023-06-15T19:26:24.835Z,24.00
2023-06-15T19:28:55.582Z,23.80
2023-06-15T19:31:26.310Z,23.60
2023-06-15T19:33:56.430Z,23.70
2023-06-15T19:36:26.111Z,23.60
2023-06-15T19:39:02.422Z,23.60
2023-06-15T19:41:36.387Z,23.60
2023-06-15T19:44:05.179Z,23.50
2023-06-15T19:46:34.986Z,23.40
2023-06-15T19:49:03.705Z,23.30
2023-06-15T19:51:33.225Z,23.20
2023-06-15T19:54:05.385Z,23.10
2023-06-15T19:56:52.951Z,23.00
2023-06-15T19:59:24.803Z,22.90
2023-06-15T20:01:53.457Z,22.80
2023-06-15T20:04:22.105Z,22.60
2023-06-15T20:06:52.236Z,22.40
2023-06-15T20:09:20.522Z,22.30
2023-06-15T20:11:48.970Z,22.30
2023-06-15T20:14:19.308Z,22.20
2023-06-15T20:16:47.893Z,22.10
2023-06-15T20:19:16.902Z,22.10
2023-06-15T20:21:47.826Z,22.00
2023-06-15T20:24:19.192Z,22.00
2023-06-15T20:26:47.432Z,22.00
2023-06-15T20:29:16.239Z,21.90
2023-06-15T20:31:48.542Z,21.90
2023-06-15T20:34:17.972Z,21.80
2023-06-15T20:36:47.379Z,21.80
2023-06-15T20:39:18.729Z,21.70
2023-06-15T20:41:47.336Z,21.60
2023-06-15T20:44:15.661Z,21.60
2023-06-15T20:46:45.582Z,21.50
2023-06-15T20:49:13.983Z,21.40
2023-06-15T20:51:43.878Z,21.30
2023-06-15T20:54:15.629Z,21.30
2023-06-15T20:56:44.666Z,21.20
2023-06-15T20:59:12.927Z,21.20
2023-06-15T21:01:41.438Z,21.10
2023-06-15T21:04:16.603Z,21.00
2023-06-15T21:06:44.861Z,21.00
2023-06-15T21:09:13.173Z,20.90
2023-06-15T21:11:41.278Z,20.80
2023-06-15T21:14:09.408Z,20.70
2023-06-15T21:16:37.500Z,20.70
2023-06-15T21:19:07.844Z,20.70
2023-06-15T21:21:37.484Z,20.60
2023-06-15T21:24:06.301Z,20.60
2023-06-15T21:26:34.576Z,20.50
2023-06-15T21:29:06.117Z,20.50
2023-06-15T21:31:36.167Z,20.40
2023-06-15T21:34:06.855Z,20.40
2023-06-15T21:36:36.646Z,20.30
2023-06-15T21:39:05.036Z,20.20
2023-06-15T21:41:33.868Z,20.20
2023-06-15T21:44:03.487Z,20.10
2023-06-15T21:46:33.218Z,20.00
2023-06-15T21:49:04.555Z,20.00
2023-06-15T21:51:32.787Z,19.90
2023-06-15T21:54:02.981Z,20.00
2023-06-15T21:56:31.062Z,20.00
2023-06-15T21:58:59.226Z,20.00
2023-06-15T22:01:33.290Z,19.90
2023-06-15T22:04:01.932Z,19.90
2023-06-15T22:06:30.337Z,19.90
2023-06-15T22:08:58.562Z,19.90
2023-06-15T22:11:28.713Z,19.80
2023-06-15T22:13:58.309Z,19.80
2023-06-15T22:16:26.862Z,19.70
2023-06-15T22:18:55.394Z,19.70
2023-06-15T22:21:26.061Z,19.70
2023-06-15T22:23:56.531Z,19.80
2023-06-15T22:26:26.811Z,19.80
2023-06-15T22:28:56.406Z,19.80
2023-06-15T22:31:24.651Z,19.80
2023-06-15T22:33:52.793Z,19.80
2023-06-15T22:36:21.104Z,19.90
2023-06-15T22:38:51.574Z,19.90
2023-06-15T22:41:19.598Z,19.90
2023-06-15T22:43:47.618Z,19.90
2023-06-15T22:46:18.128Z,19.80
2023-06-15T22:48:48.182Z,19.80
2023-06-15T22:51:19.400Z,19.80
2023-06-15T22:53:48.489Z,19.80
2023-06-15T22:56:16.542Z,19.70
2023-06-15T22:58:46.159Z,19.70
2023-06-15T23:01:14.706Z,19.70
2023-06-15T23:03:44.421Z,19.60
2023-06-15T23:06:13.041Z,19.40
2023-06-15T23:08:41.146Z,19.50
2023-06-15T23:11:10.950Z,19.50
2023-06-15T23:13:39.809Z,19.40
2023-06-15T23:16:08.450Z,19.40
2023-06-15T23:18:37.125Z,19.40
2023-06-15T23:21:10.321Z,19.30
2023-06-15T23:23:40.259Z,19.20
2023-06-15T23:26:10.267Z,19.20
2023-06-15T23:28:43.468Z,19.10
2023-06-15T23:31:11.962Z,18.90
2023-06-15T23:33:41.038Z,19.00
2023-06-15T23:36:15.173Z,19.00
2023-06-15T23:38:43.305Z,18.90
2023-06-15T23:41:11.394Z,18.90
2023-06-15T23:43:39.609Z,18.90
2023-06-15T23:46:07.876Z,18.90
2023-06-15T23:48:36.030Z,18.80
2023-06-15T23:51:04.262Z,18.80
2023-06-15T23:53:33.880Z,18.70
2023-06-15T23:56:04.678Z,18.70
2023-06-15T23:58:36.815Z,18.70
